Time;durP1;ratioP1;P1;durP2;ratioP2;P2;SDS_P1;SDS_P2;PMS_P1;PMS_P2;Temp;Humidity;BMP_temperature;BMP_pressure;BME280_temperature;BME280_humidity;BME280_pressure;Samples;Min_cycle;Max_cycle;Signal;HPM_P1;HPM_P2
2023/04/20 00:00:14;;;;;;;11.60;6.20;;;;;;;-145.69;100.00;52586.97;5075837;28;20553;-79
2023/04/20 00:02:42;;;;;;;11.70;7.03;;;;;;;-145.69;100.00;52581.03;5075615;28;20646;-79
2023/04/20 00:05:10;;;;;;;14.13;6.93;;;;;;;-145.69;100.00;52567.16;5075487;28;20318;-79
2023/04/20 00:07:37;;;;;;;15.43;6.73;;;;;;;-145.69;100.00;52590.94;5075674;28;20202;-79
2023/04/20 00:10:04;;;;;;;14.30;6.57;;;;;;;-145.69;100.00;52586.97;5075222;28;20252;-78
2023/04/20 00:12:31;;;;;;;15.07;7.17;;;;;;;-145.69;100.00;52563.22;5075494;28;20222;-79
2023/04/20 00:14:57;;;;;;;12.07;7.07;;;;;;;-145.69;100.00;52569.16;5075426;28;20199;-79
2023/04/20 00:17:24;;;;;;;12.40;6.40;;;;;;;-145.69;100.00;52579.06;5075636;28;20232;-79
2023/04/20 00:19:52;;;;;;;15.87;7.37;;;;;;;-145.69;100.00;52561.22;5075612;28;20290;-79
2023/04/20 00:22:18;;;;;;;11.60;6.20;;;;;;;-145.69;100.00;52559.25;5074979;28;20195;-79
2023/04/20 00:24:45;;;;;;;12.73;6.40;;;;;;;-145.69;100.00;52571.13;5075259;28;20233;-79
2023/04/20 00:27:11;;;;;;;14.97;6.50;;;;;;;-145.69;100.00;52581.03;5075295;28;20556;-78
2023/04/20 00:29:38;;;;;;;15.77;7.60;;;;;;;-145.69;100.00;52559.25;5067239;28;20195;-79
2023/04/20 00:32:05;;;;;;;15.87;6.97;;;;;;;-145.69;100.00;52577.06;5075299;28;20221;-79
2023/04/20 00:34:31;;;;;;;13.77;6.77;;;;;;;-145.69;100.00;52583.00;5073848;28;20217;-79
2023/04/20 00:36:59;;;;;;;9.97;6.03;;;;;;;-145.69;100.00;52555.28;5075060;28;20654;-78
2023/04/20 00:39:26;;;;;;;9.53;5.80;;;;;;;-145.69;100.00;52594.91;5074689;28;20253;-79
2023/04/20 00:41:52;;;;;;;10.07;5.37;;;;;;;-145.69;100.00;52579.06;5075303;28;20565;-79
2023/04/20 00:44:19;;;;;;;12.90;6.17;;;;;;;-145.69;100.00;52567.16;5074933;28;20246;-79
2023/04/20 00:46:46;;;;;;;15.77;6.77;;;;;;;-145.69;100.00;52579.06;5075097;28;20293;-79
2023/04/20 00:49:12;;;;;;;12.20;6.37;;;;;;;-145.69;100.00;52555.28;5075103;28;20209;-79
2023/04/20 00:51:39;;;;;;;12.53;6.10;;;;;;;-145.69;100.00;52594.91;5065484;28;20191;-80
2023/04/20 00:54:07;;;;;;;15.60;7.20;;;;;;;-145.69;100.00;52620.66;5055170;28;20207;-79
2023/04/20 00:56:34;;;;;;;15.00;7.10;;;;;;;-145.69;100.00;52606.78;5065956;28;20203;-79
2023/04/20 00:59:01;;;;;;;13.40;6.17;;;;;;;-145.69;100.00;52553.31;5074229;28;20621;-79
2023/04/20 01:01:28;;;;;;;13.20;6.13;;;;;;;-145.69;100.00;52583.00;5074775;28;20199;-78
2023/04/20 01:03:55;;;;;;;10.07;5.70;;;;;;;-145.69;100.00;52567.16;5074525;28;20230;-79
2023/04/20 01:06:21;;;;;;;12.13;5.50;;;;;;;-145.69;100.00;52579.06;5074694;28;20542;-80
2023/04/20 01:08:49;;;;;;;11.90;5.87;;;;;;;-145.69;100.00;52579.06;5074694;28;20234;-79
2023/04/20 01:11:18;;;;;;;14.87;5.40;;;;;;;-145.69;100.00;52598.84;5074390;28;20213;-79
2023/04/20 01:13:44;;;;;;;9.20;5.20;;;;;;;-145.69;100.00;52583.00;5074336;28;20199;-79
2023/04/20 01:16:12;;;;;;;8.97;5.00;;;;;;;-145.69;100.00;52575.09;5074256;28;20248;-79
2023/04/20 01:18:43;;;;;;;14.43;4.97;;;;;;;-145.69;100.00;52586.97;5074109;28;20248;-79
2023/04/20 01:21:09;;;;;;;11.60;5.30;;;;;;;-145.69;100.00;52569.16;5074430;28;20203;-79
2023/04/20 01:23:37;;;;;;;9.47;5.00;;;;;;;-145.69;100.00;52610.75;5074251;28;20654;-79
2023/04/20 01:26:06;;;;;;;11.10;6.30;;;;;;;-145.69;100.00;52590.94;5074238;28;20231;-79
2023/04/20 01:28:33;;;;;;;13.17;6.03;;;;;;;-145.69;100.00;52543.41;5073936;28;20195;-79
2023/04/20 01:30:59;;;;;;;11.70;6.07;;;;;;;-145.69;100.00;52569.16;5074161;28;20209;-79
2023/04/20 01:33:26;;;;;;;13.90;6.17;;;;;;;-145.69;100.00;52588.97;5073913;28;20206;-79
2023/04/20 01:35:53;;;;;;;11.67;5.90;;;;;;;-145.69;100.00;52608.75;5074172;28;20253;-79
2023/04/20 01:38:20;;;;;;;12.90;5.73;;;;;;;-145.69;100.00;52598.84;5073553;28;20197;-79
2023/04/20 01:40:48;;;;;;;18.00;7.03;;;;;;;-145.69;100.00;52579.06;5074206;28;20203;-79
2023/04/20 01:43:15;;;;;;;18.53;7.80;;;;;;;-145.69;100.00;52596.88;5074029;28;20199;-79
2023/04/20 01:45:42;;;;;;;19.60;7.43;;;;;;;-145.69;100.00;52571.13;5073445;28;20317;-79
2023/04/20 01:48:08;;;;;;;16.00;7.40;;;;;;;-145.69;100.00;52614.72;5073757;28;20208;-79
2023/04/20 01:50:35;;;;;;;14.93;7.30;;;;;;;-145.69;100.00;52602.81;5073706;28;20191;-79
2023/04/20 01:53:01;;;;;;;16.10;7.40;;;;;;;-145.69;100.00;52594.91;5073941;28;20256;-79
2023/04/20 01:55:28;;;;;;;16.17;8.57;;;;;;;-145.69;100.00;52575.09;5073570;28;20199;-79
2023/04/20 01:57:58;;;;;;;14.93;7.07;;;;;;;-145.69;100.00;52598.84;5073477;28;20202;-79
2023/04/20 02:00:24;;;;;;;15.33;7.43;;;;;;;-145.69;100.00;52590.94;5073473;28;20285;-79
2023/04/20 02:02:51;;;;;;;19.00;8.00;;;;;;;-145.69;100.00;52583.00;5073213;28;20206;-79
2023/04/20 02:05:17;;;;;;;17.73;8.20;;;;;;;-145.69;100.00;52588.97;5073213;28;20313;-78
2023/04/20 02:07:44;;;;;;;18.83;8.17;;;;;;;-145.69;100.00;52610.75;5073124;28;20562;-79
2023/04/20 02:10:11;;;;;;;16.57;8.73;;;;;;;-145.69;100.00;52598.84;5073377;28;20205;-79
2023/04/20 02:12:37;;;;;;;18.43;7.37;;;;;;;-145.69;100.00;52585.00;5073412;28;20209;-79
2023/04/20 02:15:08;;;;;;;16.17;7.37;;;;;;;-145.69;100.00;52583.00;5073000;28;20657;-79
2023/04/20 02:17:35;;;;;;;17.10;8.50;;;;;;;-145.69;100.00;52610.75;5073191;28;20194;-79
2023/04/20 02:20:03;;;;;;;20.23;8.13;;;;;;;-145.69;100.00;52598.84;5073240;28;20653;-80
2023/04/20 02:22:33;;;;;;;17.33;8.20;;;;;;;-145.69;100.00;52606.78;5073219;28;20202;-79
2023/04/20 02:25:00;;;;;;;16.40;8.50;;;;;;;-145.69;100.00;52596.88;5072791;28;20263;-79
2023/04/20 02:27:27;;;;;;;15.77;8.37;;;;;;;-145.69;100.00;52592.91;5072872;28;20206;-79
2023/04/20 02:29:53;;;;;;;23.23;8.90;;;;;;;-145.69;100.00;52606.78;5073513;28;20195;-79
2023/04/20 02:32:21;;;;;;;16.43;8.00;;;;;;;-145.69;100.00;52590.94;5073357;28;20203;-79
2023/04/20 02:34:48;;;;;;;14.50;7.23;;;;;;;-145.69;100.00;52581.03;5073246;28;20680;-78
2023/04/20 02:37:14;;;;;;;14.03;7.70;;;;;;;-145.69;100.00;52598.84;5072678;28;20199;-79
2023/04/20 02:39:41;;;;;;;17.93;8.37;;;;;;;-145.69;100.00;52594.91;5072896;28;20209;-79
2023/04/20 02:42:07;;;;;;;13.67;7.30;;;;;;;-145.69;100.00;52559.25;5072292;28;20199;-81
2023/04/20 02:44:34;;;;;;;14.60;6.67;;;;;;;-145.69;100.00;52610.75;5072843;28;20228;-80
2023/04/20 02:47:00;;;;;;;11.67;6.40;;;;;;;-145.69;100.00;52598.84;5070926;28;20225;-81
2023/04/20 02:49:28;;;;;;;10.87;5.80;;;;;;;-145.69;100.00;52610.75;5054290;28;20202;-80
2023/04/20 02:51:55;;;;;;;11.47;5.97;;;;;;;-145.69;100.00;52612.72;5052778;28;20290;-78
2023/04/20 02:54:21;;;;;;;14.00;6.43;;;;;;;-145.69;100.00;52648.38;5052670;28;20199;-81
2023/04/20 02:56:48;;;;;;;11.97;6.53;;;;;;;-145.69;100.00;52594.91;5051809;28;20199;-81
2023/04/20 02:59:14;;;;;;;16.63;8.40;;;;;;;-145.69;100.00;52588.97;5065139;28;20190;-80
2023/04/20 03:01:41;;;;;;;24.33;8.07;;;;;;;-145.69;100.00;52594.91;5072313;28;20202;-80
2023/04/20 03:04:07;;;;;;;19.03;8.47;;;;;;;-145.69;100.00;52594.91;5072754;28;20213;-80
2023/04/20 03:06:36;;;;;;;13.47;7.17;;;;;;;-145.69;100.00;52598.84;5072156;28;20214;-80
2023/04/20 03:09:02;;;;;;;12.60;7.00;;;;;;;-145.69;100.00;52610.75;5072528;28;20604;-80
2023/04/20 03:11:29;;;;;;;12.50;6.60;;;;;;;-145.69;100.00;52612.72;5072395;28;20559;-80
2023/04/20 03:13:56;;;;;;;17.07;6.60;;;;;;;-145.69;100.00;52563.22;5072692;28;20298;-80
2023/04/20 03:16:22;;;;;;;16.80;6.97;;;;;;;-145.69;100.00;52604.81;5072180;28;20198;-80
2023/04/20 03:18:49;;;;;;;14.03;7.50;;;;;;;-145.69;100.00;52642.44;5071977;28;20676;-80
2023/04/20 03:21:16;;;;;;;13.13;7.00;;;;;;;-145.69;100.00;52590.94;5072565;28;20207;-81
2023/04/20 03:23:44;;;;;;;15.87;7.40;;;;;;;-145.69;100.00;52602.81;5072492;28;20199;-80
2023/04/20 03:26:11;;;;;;;13.80;7.20;;;;;;;-145.69;100.00;52618.66;5072543;28;20230;-80
2023/04/20 03:28:38;;;;;;;16.57;7.63;;;;;;;-145.69;100.00;52614.72;5072349;28;20260;-80
2023/04/20 03:31:05;;;;;;;20.63;8.47;;;;;;;-145.69;100.00;52606.78;5072640;28;20198;-80
2023/04/20 03:33:31;;;;;;;17.73;7.67;;;;;;;-145.69;100.00;52618.66;5072210;28;20195;-80
2023/04/20 03:35:58;;;;;;;14.90;7.20;;;;;;;-145.69;100.00;52590.94;5071743;28;20202;-80
2023/04/20 03:38:25;;;;;;;15.73;7.77;;;;;;;-145.69;100.00;52583.00;5071534;28;20206;-80
2023/04/20 03:40:53;;;;;;;16.77;8.00;;;;;;;-145.69;100.00;52577.06;5072147;28;20195;-80
2023/04/20 03:43:19;;;;;;;13.87;7.10;;;;;;;-145.69;100.00;52602.81;5072258;28;20261;-80
2023/04/20 03:45:46;;;;;;;22.97;8.23;;;;;;;-145.69;100.00;52598.84;5072128;28;20235;-79
2023/04/20 03:48:13;;;;;;;15.13;7.53;;;;;;;-145.69;100.00;52610.75;5071953;28;20252;-80
2023/04/20 03:50:39;;;;;;;20.30;9.60;;;;;;;-145.69;100.00;52608.75;5071956;28;20664;-80
2023/04/20 03:53:06;;;;;;;28.23;13.88;;;;;;;-145.69;100.00;52654.31;5071391;28;20442;-80
2023/04/20 03:55:32;;;;;;;34.27;13.50;;;;;;;-145.69;100.00;52618.66;5072059;28;20657;-81
2023/04/20 03:58:00;;;;;;;25.70;10.40;;;;;;;-145.69;100.00;52658.28;5072148;28;20202;-80
2023/04/20 04:00:26;;;;;;;20.67;9.50;;;;;;;-145.69;100.00;52594.91;5070697;28;20195;-79
2023/04/20 04:02:53;;;;;;;21.50;8.97;;;;;;;-145.69;100.00;52600.84;5070712;28;20561;-80
2023/04/20 04:05:19;;;;;;;18.83;9.33;;;;;;;-145.69;100.00;52600.84;5071468;28;20241;-80
2023/04/20 04:07:46;;;;;;;19.43;9.80;;;;;;;-145.69;100.00;52612.72;5071938;28;20595;-80
2023/04/20 04:10:13;;;;;;;24.67;10.27;;;;;;;-145.69;100.00;52618.66;5074966;28;20199;-81
2023/04/20 04:12:40;;;;;;;25.53;9.97;;;;;;;-145.69;100.00;52646.41;5075792;28;20207;-79
2023/04/20 04:15:09;;;;;;;20.90;8.63;;;;;;;-145.69;100.00;52630.53;5075580;28;20241;-80
2023/04/20 04:17:36;;;;;;;22.50;8.47;;;;;;;-145.69;100.00;52600.84;5075625;28;20218;-80
2023/04/20 04:20:02;;;;;;;19.17;8.67;;;;;;;-145.69;100.00;52622.63;5075328;28;20203;-80
2023/04/20 04:22:29;;;;;;;18.63;7.47;;;;;;;-145.69;100.00;52604.81;5075683;28;20592;-80
2023/04/20 04:24:55;;;;;;;16.63;7.50;;;;;;;-145.69;100.00;52628.56;5075303;28;20209;-80
2023/04/20 04:27:22;;;;;;;13.57;7.07;;;;;;;-145.69;100.00;52630.53;5075373;28;20213;-79
2023/04/20 04:29:48;;;;;;;15.03;7.13;;;;;;;-145.69;100.00;52581.03;5075165;28;20194;-79
2023/04/20 04:32:16;;;;;;;19.43;7.70;;;;;;;-145.69;100.00;52586.97;5075310;28;20252;-80
2023/04/20 04:34:43;;;;;;;17.20;8.00;;;;;;;-145.69;100.00;52618.66;5075227;28;20569;-80
2023/04/20 04:37:10;;;;;;;18.80;10.07;;;;;;;-145.69;100.00;52622.63;5074336;28;20446;-78
2023/04/20 04:39:51;;;;;;;16.87;8.57;;;;;;;-145.69;100.00;52628.56;5075085;28;20658;-80
2023/04/20 04:42:17;;;;;;;14.97;7.10;;;;;;;-145.69;100.00;52606.78;5074421;28;20191;-79
2023/04/20 04:44:44;;;;;;;32.87;13.27;;;;;;;-145.69;100.00;52575.09;5074755;28;20227;-79
2023/04/20 04:47:13;;;;;;;33.00;13.37;;;;;;;-145.69;100.00;52604.81;5074218;28;20237;-80
2023/04/20 04:49:41;;;;;;;36.13;13.63;;;;;;;-145.69;100.00;52630.53;5075151;28;20199;-79
2023/04/20 04:52:12;;;;;;;32.10;13.20;;;;;;;-145.69;100.00;52602.81;5074806;28;20293;-79
2023/04/20 04:54:38;;;;;;;29.97;12.30;;;;;;;-145.69;100.00;52616.69;5067328;28;20629;-80
2023/04/20 04:57:07;;;;;;;43.33;14.73;;;;;;;-145.69;100.00;52583.00;5054855;28;20207;-79
2023/04/20 04:59:33;;;;;;;41.00;15.27;;;;;;;-145.69;100.00;52590.94;5065101;28;20194;-79
2023/04/20 05:02:02;;;;;;;55.13;15.57;;;;;;;-145.69;100.00;52610.75;5074659;28;20191;-79
2023/04/20 05:04:34;;;;;;;48.80;15.87;;;;;;;-145.69;100.00;52590.94;5074559;28;20223;-80
2023/04/20 05:07:02;;;;;;;36.23;14.97;;;;;;;-145.69;100.00;52640.44;5073885;28;20237;-80
2023/04/20 05:09:32;;;;;;;62.57;19.33;;;;;;;-145.69;100.00;52594.91;5074603;28;20819;-79
2023/04/20 05:12:01;;;;;;;41.13;16.13;;;;;;;-145.69;100.00;52606.78;5074159;28;20221;-79
2023/04/20 05:14:28;;;;;;;39.47;14.07;;;;;;;-145.69;100.00;52610.75;5074586;28;20226;-80
2023/04/20 05:17:00;;;;;;;55.43;18.23;;;;;;;-145.69;100.00;52632.53;5073976;28;20215;-80
2023/04/20 05:19:27;;;;;;;48.00;18.23;;;;;;;-145.69;100.00;52620.66;5074031;28;20550;-80
2023/04/20 05:21:56;;;;;;;47.37;19.13;;;;;;;-145.69;100.00;52583.00;5074305;28;20209;-79
2023/04/20 05:24:24;;;;;;;55.53;19.87;;;;;;;-145.69;100.00;52598.84;5074292;28;20210;-80
2023/04/20 05:26:51;;;;;;;55.80;20.13;;;;;;;-145.69;100.00;52602.81;5074159;28;20269;-79
2023/04/20 05:29:17;;;;;;;53.20;19.30;;;;;;;-145.69;100.00;52592.91;5074040;28;20195;-79
2023/04/20 05:31:49;;;;;;;50.87;19.30;;;;;;;-145.69;100.00;52606.78;5074311;28;20213;-80
2023/04/20 05:34:15;;;;;;;44.00;18.93;;;;;;;-145.69;100.00;52618.66;5074108;28;20235;-80
2023/04/20 05:36:44;;;;;;;44.33;18.37;;;;;;;-145.69;100.00;52608.75;5073803;28;20191;-80
2023/04/20 05:39:13;;;;;;;46.60;18.97;;;;;;;-145.69;100.00;52610.75;5073670;28;20612;-80
2023/04/20 05:41:41;;;;;;;58.30;20.97;;;;;;;-145.69;100.00;52586.97;5074074;28;20367;-80
2023/04/20 05:44:08;;;;;;;60.17;18.20;;;;;;;-145.69;100.00;52579.06;5073619;28;20210;-80
2023/04/20 05:46:40;;;;;;;76.17;20.30;;;;;;;-145.69;100.00;52594.91;5074078;28;20593;-79
2023/04/20 05:49:07;;;;;;;45.93;17.83;;;;;;;-145.69;100.00;52590.94;5073935;28;20199;-80
2023/04/20 05:51:34;;;;;;;55.40;18.93;;;;;;;-145.69;100.00;52622.63;5073690;28;20203;-80
2023/04/20 05:54:00;;;;;;;47.07;19.00;;;;;;;-145.69;100.00;52606.78;5073899;28;20199;-80
2023/04/20 05:56:27;;;;;;;46.23;19.07;;;;;;;-145.69;100.00;52600.84;5073593;28;20218;-80
2023/04/20 05:58:55;;;;;;;46.07;19.00;;;;;;;-145.69;100.00;52575.09;5073220;28;20195;-80
2023/04/20 06:01:22;;;;;;;48.47;19.37;;;;;;;-145.69;100.00;52618.66;5073942;28;20210;-80
2023/04/20 06:03:48;;;;;;;50.83;19.65;;;;;;;-145.69;100.00;52585.00;5073196;28;20441;-80
2023/04/20 06:06:15;;;;;;;45.57;19.03;;;;;;;-145.69;100.00;52602.81;5073321;28;20227;-80
2023/04/20 06:08:42;;;;;;;51.30;18.47;;;;;;;-145.69;100.00;52606.78;5073509;28;20198;-79
2023/04/20 06:11:17;;;;;;;43.77;18.67;;;;;;;-145.69;100.00;52634.50;5073558;28;20202;-80
2023/04/20 06:13:43;;;;;;;45.67;18.93;;;;;;;-145.69;100.00;52585.00;5073480;28;20284;-80
2023/04/20 06:16:13;;;;;;;42.93;18.67;;;;;;;-145.69;100.00;52600.84;5072477;28;20195;-80
2023/04/20 06:18:40;;;;;;;38.63;17.83;;;;;;;-145.69;100.00;52594.91;5072570;28;20198;-79
2023/04/20 06:21:09;;;;;;;37.50;15.97;;;;;;;-145.69;100.00;52630.53;5072897;28;20199;-80
2023/04/20 06:23:36;;;;;;;36.97;17.73;;;;;;;-145.69;100.00;52614.72;5073386;28;20203;-80
2023/04/20 06:26:03;;;;;;;40.57;17.40;;;;;;;-145.69;100.00;52590.94;5073256;28;20225;-80
2023/04/20 06:28:29;;;;;;;38.97;18.50;;;;;;;-145.69;100.00;52581.03;5072810;28;20198;-79
2023/04/20 06:30:56;;;;;;;41.47;16.77;;;;;;;-145.69;100.00;52626.59;5072844;28;20206;-79
2023/04/20 06:33:26;;;;;;;40.00;16.43;;;;;;;-145.69;100.00;52590.94;5072111;28;20241;-79
2023/04/20 06:35:55;;;;;;;37.87;15.93;;;;;;;-145.69;100.00;52586.97;5073164;28;20198;-80
2023/04/20 06:38:27;;;;;;;30.43;14.37;;;;;;;-145.69;100.00;52590.94;5072973;28;20772;-79
2023/04/20 06:40:56;;;;;;;24.07;13.50;;;;;;;-145.69;100.00;52590.94;5072970;28;20665;-79
2023/04/20 06:43:22;;;;;;;30.07;14.17;;;;;;;-145.69;100.00;52581.03;5072995;28;20252;-80
2023/04/20 06:45:49;;;;;;;26.90;12.83;;;;;;;-145.69;100.00;52592.91;5072565;28;20234;-80
2023/04/20 06:48:15;;;;;;;26.57;13.03;;;;;;;-145.69;100.00;52606.78;5072848;28;20205;-80
2023/04/20 06:50:48;;;;;;;28.03;12.93;;;;;;;-145.69;100.00;52598.84;5073035;28;20198;-80
2023/04/20 06:53:15;;;;;;;28.23;14.60;;;;;;;-145.69;100.00;52581.03;5072471;28;20197;-79
2023/04/20 06:55:42;;;;;;;24.10;12.80;;;;;;;-145.69;100.00;52571.13;5072415;28;20281;-80
2023/04/20 06:58:11;;;;;;;25.23;12.97;;;;;;;-145.69;100.00;52583.00;5072809;28;20566;-80
2023/04/20 07:00:37;;;;;;;29.00;14.17;;;;;;;-145.69;100.00;52598.84;5073088;28;20203;-79
2023/04/20 07:03:17;;;;;;;29.83;13.33;;;;;;;-145.69;100.00;52604.81;5059858;28;20199;-79
2023/04/20 07:05:45;;;;;;;26.13;13.53;;;;;;;-145.69;100.00;52575.09;5057176;28;20226;-79
2023/04/20 07:08:20;;;;;;;33.90;14.67;;;;;;;-145.69;100.00;52616.69;5072442;28;20222;-80
2023/04/20 07:10:46;;;;;;;32.97;15.03;;;;;;;-145.69;100.00;52571.13;5072755;28;20202;-79
2023/04/20 07:13:14;;;;;;;36.70;16.37;;;;;;;-145.69;100.00;52579.06;5072407;28;20199;-79
2023/04/20 07:15:42;;;;;;;29.60;13.47;;;;;;;-145.69;100.00;52596.88;5072762;28;20207;-80
2023/04/20 07:18:12;;;;;;;29.60;13.53;;;;;;;-145.69;100.00;52581.03;5072658;28;20297;-80
2023/04/20 07:20:43;;;;;;;28.10;12.83;;;;;;;-145.69;100.00;52579.06;5072746;28;20198;-80
2023/04/20 07:23:15;;;;;;;25.03;12.10;;;;;;;-145.69;100.00;52590.94;5071956;28;20669;-80
2023/04/20 07:25:41;;;;;;;28.20;13.67;;;;;;;-145.69;100.00;52590.94;5072778;28;20203;-79
2023/04/20 07:28:08;;;;;;;26.30;12.37;;;;;;;-145.69;100.00;52590.94;5072493;28;20254;-79
2023/04/20 07:30:34;;;;;;;30.23;13.17;;;;;;;-145.69;100.00;52594.91;5072638;28;20203;-79
2023/04/20 07:33:01;;;;;;;28.87;14.90;;;;;;;-145.69;100.00;52583.00;5072231;28;20206;-79
2023/04/20 07:35:29;;;;;;;27.83;13.07;;;;;;;-145.69;100.00;52592.91;5072579;28;20195;-79
2023/04/20 07:37:57;;;;;;;32.73;15.93;;;;;;;-145.69;100.00;52571.13;5072348;28;20626;-79
2023/04/20 07:40:26;;;;;;;32.97;14.43;;;;;;;-145.69;100.00;52579.06;5072121;28;20569;-80
2023/04/20 07:42:53;;;;;;;29.47;14.73;;;;;;;-145.69;100.00;52630.53;5073149;28;20645;-79
2023/04/20 07:45:22;;;;;;;43.57;17.80;;;;;;;-145.69;100.00;52618.66;5076194;28;20237;-80
2023/04/20 07:47:53;;;;;;;30.93;14.87;;;;;;;-145.69;100.00;52600.84;5075582;28;20228;-80
2023/04/20 07:50:20;;;;;;;27.93;14.27;;;;;;;-145.69;100.00;52592.91;5076218;28;20202;-79
2023/04/20 07:52:49;;;;;;;31.60;14.97;;;;;;;-145.69;100.00;52581.03;5075623;28;20680;-80
2023/04/20 07:55:19;;;;;;;34.27;14.40;;;;;;;-145.69;100.00;52628.56;5076115;28;20195;-79
2023/04/20 07:57:49;;;;;;;31.60;14.93;;;;;;;-145.69;100.00;52610.75;5075994;28;20218;-80
2023/04/20 08:00:16;;;;;;;33.83;15.57;;;;;;;-145.69;100.00;52622.63;5075977;28;20260;-79
2023/04/20 08:02:45;;;;;;;30.37;15.23;;;;;;;-145.69;100.00;52628.56;5075542;28;20231;-79
2023/04/20 08:05:11;;;;;;;33.40;15.63;;;;;;;-145.69;100.00;52588.97;5075173;28;20199;-80
2023/04/20 08:07:45;;;;;;;34.93;14.53;;;;;;;-145.69;100.00;52565.19;5075469;28;20229;-79
2023/04/20 08:10:17;;;;;;;30.07;15.30;;;;;;;-145.69;100.00;52616.69;5075756;28;20677;-80
2023/04/20 08:12:43;;;;;;;30.87;15.53;;;;;;;-145.69;100.00;52559.25;5075650;28;20217;-80
2023/04/20 08:15:13;;;;;;;34.93;14.60;;;;;;;-145.69;100.00;52583.00;5075757;28;20205;-80
2023/04/20 08:17:40;;;;;;;38.33;18.83;;;;;;;-145.69;100.00;52583.00;5075714;28;20202;-80
2023/04/20 08:20:09;;;;;;;91.43;36.87;;;;;;;-145.69;100.00;52583.00;5075531;28;20206;-79
2023/04/20 08:22:36;;;;;;;45.60;20.93;;;;;;;-145.69;100.00;52594.91;5074877;28;20268;-79
2023/04/20 08:25:04;;;;;;;96.70;37.77;;;;;;;-145.69;100.00;52596.88;5075495;28;20565;-80
2023/04/20 08:27:31;;;;;;;41.20;19.40;;;;;;;-145.69;100.00;52594.91;5075276;28;20711;-79
2023/04/20 08:30:03;;;;;;;28.13;15.00;;;;;;;-145.69;100.00;52602.81;5075359;28;20221;-80
2023/04/20 08:32:32;;;;;;;25.37;12.80;;;;;;;-145.69;100.00;52612.72;5075383;28;20289;-79
2023/04/20 08:34:59;;;;;;;23.90;12.40;;;;;;;-145.69;100.00;52592.91;5075160;28;20294;-80
2023/04/20 08:37:27;;;;;;;28.00;13.30;;;;;;;-145.69;100.00;52608.75;5074688;28;20671;-80
2023/04/20 08:39:55;;;;;;;26.13;13.67;;;;;;;-145.69;100.00;52586.97;5074887;28;20560;-79
2023/04/20 08:42:22;;;;;;;26.90;12.63;;;;;;;-145.69;100.00;52575.09;5074968;28;20727;-80
2023/04/20 08:44:48;;;;;;;25.67;13.67;;;;;;;-145.69;100.00;52581.03;5074887;28;20238;-80
2023/04/20 08:47:15;;;;;;;26.93;14.37;;;;;;;-145.69;100.00;52610.75;5074701;28;20309;-79
2023/04/20 08:49:46;;;;;;;27.83;14.70;;;;;;;-145.69;100.00;52598.84;5075160;28;20206;-80
2023/04/20 08:52:19;;;;;;;26.00;14.27;;;;;;;-145.69;100.00;52573.13;5074989;28;20228;-80
2023/04/20 08:54:45;;;;;;;27.20;13.53;;;;;;;-145.69;100.00;52583.00;5073832;28;20197;-80
2023/04/20 08:57:12;;;;;;;28.60;14.70;;;;;;;-145.69;100.00;52571.13;5074874;28;20211;-80
2023/04/20 08:59:38;;;;;;;23.43;12.93;;;;;;;-145.69;100.00;52535.47;5074689;28;20230;-80
2023/04/20 09:02:10;;;;;;;23.87;13.70;;;;;;;-145.69;100.00;52569.16;5073982;28;20203;-80
2023/04/20 09:04:47;;;;;;;24.93;12.67;;;;;;;-145.69;100.00;52563.22;5066090;28;20273;-80
2023/04/20 09:07:21;;;;;;;20.67;12.37;;;;;;;-145.69;100.00;52594.91;5054398;28;20732;-79
2023/04/20 09:09:55;;;;;;;23.43;12.57;;;;;;;-145.69;100.00;52571.13;5054862;28;20283;-80
2023/04/20 09:12:24;;;;;;;22.93;12.37;;;;;;;-145.69;100.00;52579.06;5054486;28;20226;-80
2023/04/20 09:15:01;;;;;;;23.40;12.57;;;;;;;-145.69;100.00;52600.84;5054662;28;20213;-80
2023/04/20 09:17:32;;;;;;;24.57;12.33;;;;;;;-145.69;100.00;52606.78;5071782;28;20286;-80
2023/04/20 09:20:03;;;;;;;21.30;12.10;;;;;;;-145.69;100.00;52551.31;5074366;28;20248;-80
2023/04/20 09:22:32;;;;;;;23.80;11.90;;;;;;;-145.69;100.00;52551.31;5074416;28;20266;-80
2023/04/20 09:25:00;;;;;;;22.43;11.40;;;;;;;-145.69;100.00;52567.16;5074075;28;20199;-80
2023/04/20 09:27:26;;;;;;;20.87;10.97;;;;;;;-145.69;100.00;52579.06;5074271;28;20653;-79
2023/04/20 09:30:02;;;;;;;19.63;10.73;;;;;;;-145.69;100.00;52553.31;5074232;28;20202;-79
2023/04/20 09:32:34;;;;;;;26.83;13.87;;;;;;;-145.69;100.00;52579.06;5073606;28;20794;-80
2023/04/20 09:35:00;;;;;;;22.93;12.73;;;;;;;-145.69;100.00;52551.31;5074092;28;20195;-80
2023/04/20 09:37:27;;;;;;;38.40;19.90;;;;;;;-145.69;100.00;52531.53;5074159;28;20612;-80
2023/04/20 09:40:02;;;;;;;23.30;11.57;;;;;;;-145.69;100.00;52563.22;5073899;28;20203;-80
2023/04/20 09:42:30;;;;;;;18.03;11.00;;;;;;;-145.69;100.00;52553.31;5074063;28;20672;-79
2023/04/20 09:44:57;;;;;;;19.27;10.17;;;;;;;-145.69;100.00;52559.25;5073750;28;20284;-80
2023/04/20 09:47:26;;;;;;;20.17;11.10;;;;;;;-145.69;100.00;52586.97;5073991;28;20219;-80
2023/04/20 09:49:59;;;;;;;18.03;10.77;;;;;;;-145.69;100.00;52585.00;5073672;28;20286;-79
2023/04/20 09:52:29;;;;;;;20.07;10.47;;;;;;;-145.69;100.00;52567.16;5073971;28;20280;-80
2023/04/20 09:55:05;;;;;;;19.47;9.60;;;;;;;-145.69;100.00;52565.19;5073092;28;20206;-80
2023/04/20 09:57:32;;;;;;;20.00;10.10;;;;;;;-145.69;100.00;52571.13;5073287;28;20661;-79
2023/04/20 10:00:00;;;;;;;15.17;9.53;;;;;;;-145.69;100.00;52563.22;5073797;28;20199;-79
2023/04/20 10:02:29;;;;;;;15.37;8.60;;;;;;;-145.69;100.00;52583.00;5073393;28;20281;-79
2023/04/20 10:04:56;;;;;;;15.00;9.13;;;;;;;-145.69;100.00;52579.06;5073522;28;20562;-79
2023/04/20 10:07:29;;;;;;;13.83;8.53;;;;;;;-145.69;100.00;52571.13;5073471;28;20234;-80
2023/04/20 10:10:09;;;;;;;15.13;8.53;;;;;;;-145.69;100.00;52551.31;5073269;28;20202;-79
2023/04/20 10:12:51;;;;;;;11.97;7.13;;;;;;;-145.69;100.00;52563.22;5073378;28;20535;-79
2023/04/20 10:15:21;;;;;;;10.70;7.13;;;;;;;-145.69;100.00;52555.28;5072583;28;20207;-79
2023/04/20 10:17:50;;;;;;;13.00;7.47;;;;;;;-145.69;100.00;52561.22;5072915;28;20195;-80
2023/04/20 10:20:23;;;;;;;6.23;4.40;;;;;;;-145.69;100.00;52533.50;5072998;28;20201;-80
2023/04/20 10:22:51;;;;;;;17.13;7.50;;;;;;;-145.69;100.00;52545.38;5073151;28;20248;-79
2023/04/20 10:25:25;;;;;;;13.87;8.43;;;;;;;-145.69;100.00;52547.38;5073185;28;20194;-79
2023/04/20 10:27:53;;;;;;;13.10;6.33;;;;;;;-145.69;100.00;52535.47;5073203;28;20225;-79
2023/04/20 10:30:20;;;;;;;8.17;4.03;;;;;;;-145.69;100.00;52519.63;5073090;28;20285;-79
2023/04/20 10:32:47;;;;;;;2.00;1.60;;;;;;;-145.69;100.00;52539.44;5073034;28;20290;-79
2023/04/20 10:35:15;;;;;;;1.63;1.53;;;;;;;-145.69;100.00;52539.44;5072790;28;20218;-79
2023/04/20 10:37:53;;;;;;;1.87;1.60;;;;;;;-145.69;100.00;52551.31;5073117;28;20210;-80
2023/04/20 10:40:30;;;;;;;1.27;1.00;;;;;;;-145.69;100.00;52527.56;5074797;28;20198;-80
2023/04/20 10:42:57;;;;;;;4.57;2.60;;;;;;;-145.69;100.00;52503.81;5075503;28;20715;-79
2023/04/20 10:45:37;;;;;;;2.37;1.70;;;;;;;-145.69;100.00;52569.16;5073553;28;20234;-79
2023/04/20 10:48:08;;;;;;;1.20;1.10;;;;;;;-145.69;100.00;52515.69;5073017;28;20284;-78
2023/04/20 10:50:35;;;;;;;8.50;4.70;;;;;;;-145.69;100.00;52555.28;5073005;28;20203;-79
2023/04/20 10:53:02;;;;;;;12.13;7.20;;;;;;;-145.69;100.00;52533.50;5072565;28;20237;-79
2023/04/20 10:55:30;;;;;;;4.87;3.40;;;;;;;-145.69;100.00;52547.38;5072536;28;20195;-79
2023/04/20 10:58:02;;;;;;;2.30;1.30;;;;;;;-145.69;100.00;52539.44;5072601;28;20558;-79
2023/04/20 11:00:31;;;;;;;1.40;1.15;;;;;;;-145.69;100.00;52519.63;5072089;28;20457;-79
2023/04/20 11:03:00;;;;;;;5.07;3.67;;;;;;;-145.69;100.00;52525.59;5072156;28;20205;-78